createdAt,value
2018-05-02T00:02:24.893Z,4.70
2018-05-02T00:04:53.117Z,3.80
2018-05-02T00:07:20.589Z,4.50
2018-05-02T00:09:48.046Z,5.60
2018-05-02T00:12:16.297Z,4.93
2018-05-02T00:14:43.763Z,5.30
2018-05-02T00:17:11.241Z,6.00
2018-05-02T00:19:38.709Z,5.57
2018-05-02T00:22:06.186Z,4.93
2018-05-02T00:24:33.645Z,5.00
2018-05-02T00:27:01.128Z,4.40
2018-05-02T00:29:28.594Z,4.73
2018-05-02T00:31:56.065Z,4.93
2018-05-02T00:34:23.533Z,3.73
2018-05-02T00:36:51.005Z,4.67
2018-05-02T00:39:18.461Z,5.00
2018-05-02T00:41:45.941Z,5.47
2018-05-02T00:44:13.409Z,5.13
2018-05-02T00:46:40.876Z,4.50
2018-05-02T00:49:16.636Z,4.73
2018-05-02T00:51:44.873Z,5.37
2018-05-02T00:54:12.348Z,5.77
2018-05-02T00:56:39.813Z,4.93
2018-05-02T00:59:07.264Z,6.23
2018-05-02T01:01:34.737Z,4.27
2018-05-02T01:04:02.985Z,4.70
2018-05-02T01:06:30.451Z,5.90
2018-05-02T01:08:57.914Z,4.70
2018-05-02T01:11:25.391Z,4.87
2018-05-02T01:13:53.613Z,4.20
2018-05-02T01:16:21.084Z,4.40
2018-05-02T01:18:48.557Z,5.20
2018-05-02T01:21:16.023Z,4.13
2018-05-02T01:23:43.501Z,5.00
2018-05-02T01:26:11.733Z,4.10
2018-05-02T01:28:39.203Z,5.37
2018-05-02T01:31:06.668Z,5.50
2018-05-02T01:33:34.131Z,5.07
2018-05-02T01:36:01.600Z,4.87
2018-05-02T01:38:29.065Z,5.87
2018-05-02T01:40:57.302Z,4.80
2018-05-02T01:43:24.777Z,5.17
2018-05-02T01:45:52.245Z,5.43
2018-05-02T01:48:19.717Z,5.30
2018-05-02T01:50:47.937Z,5.10
2018-05-02T01:53:15.935Z,4.90
2018-05-02T01:55:43.388Z,5.40
2018-05-02T01:58:10.861Z,4.73
2018-05-02T02:00:38.333Z,4.80
2018-05-02T02:03:06.575Z,6.17
2018-05-02T02:05:34.026Z,5.70
2018-05-02T02:08:01.498Z,5.90
2018-05-02T02:10:28.977Z,5.27
2018-05-02T02:12:56.442Z,5.43
2018-05-02T02:15:24.669Z,5.83
2018-05-02T02:17:52.152Z,6.30
2018-05-02T02:20:19.604Z,5.73
2018-05-02T02:22:47.064Z,5.30
2018-05-02T02:25:14.533Z,6.83
2018-05-02T02:27:41.996Z,5.87
2018-05-02T02:30:09.478Z,5.67
2018-05-02T02:32:38.094Z,6.10
2018-05-02T02:35:05.571Z,6.77
2018-05-02T02:37:33.033Z,5.90
2018-05-02T02:40:00.513Z,5.23
2018-05-02T02:42:27.982Z,5.37
2018-05-02T02:44:56.222Z,5.70
2018-05-02T02:47:23.701Z,5.80
2018-05-02T02:49:51.153Z,5.50
2018-05-02T02:52:18.617Z,7.17
2018-05-02T02:54:46.078Z,5.40
2018-05-02T02:57:13.549Z,5.50
2018-05-02T02:59:41.007Z,4.97
2018-05-02T03:02:08.482Z,5.80
2018-05-02T03:04:36.704Z,5.60
2018-05-02T03:07:04.170Z,5.80
2018-05-02T03:09:31.625Z,5.40
2018-05-02T03:11:59.094Z,5.43
2018-05-02T03:14:26.554Z,5.27
2018-05-02T03:16:54.028Z,5.33
2018-05-02T03:19:21.481Z,5.80
2018-05-02T03:21:48.957Z,5.43
2018-05-02T03:24:17.186Z,5.30
2018-05-02T03:26:44.653Z,6.07
2018-05-02T03:29:12.119Z,5.40
2018-05-02T03:31:39.594Z,5.90
2018-05-02T03:34:07.059Z,6.33
2018-05-02T03:36:35.297Z,6.43
2018-05-02T03:39:02.755Z,6.43
2018-05-02T03:41:30.226Z,7.00
2018-05-02T03:43:57.682Z,6.40
2018-05-02T03:46:25.180Z,6.37
2018-05-02T03:48:53.400Z,6.10
2018-05-02T03:51:20.857Z,6.87
2018-05-02T03:53:48.338Z,6.30
2018-05-02T03:56:15.837Z,5.83
2018-05-02T03:58:43.307Z,6.23
2018-05-02T04:01:22.657Z,6.00
2018-05-02T04:04:02.032Z,7.00
2018-05-02T04:06:41.546Z,6.30
2018-05-02T04:09:09.835Z,7.00
2018-05-02T04:11:37.289Z,7.10
2018-05-02T04:14:04.766Z,6.80
2018-05-02T04:16:32.224Z,6.40
2018-05-02T04:18:59.693Z,5.90
2018-05-02T04:21:27.146Z,6.20
2018-05-02T04:23:54.629Z,6.40
2018-05-02T04:26:22.860Z,6.70
2018-05-02T04:28:50.329Z,6.43
2018-05-02T04:31:17.793Z,6.40
2018-05-02T04:33:45.264Z,7.50
2018-05-02T04:36:13.498Z,7.07
2018-05-02T04:38:40.960Z,6.83
2018-05-02T04:41:08.473Z,7.33
2018-05-02T04:43:35.908Z,6.83
2018-05-02T04:46:04.138Z,7.23
2018-05-02T04:48:31.614Z,7.70
2018-05-02T04:50:59.845Z,7.10
2018-05-02T04:53:27.325Z,6.60
2018-05-02T04:55:54.795Z,6.93
2018-05-02T04:58:22.428Z,6.33
2018-05-02T05:00:49.897Z,7.30
2018-05-02T05:03:17.379Z,6.30
2018-05-02T05:05:44.837Z,5.77
2018-05-02T05:08:12.319Z,6.50
2018-05-02T05:10:39.780Z,5.63
2018-05-02T05:13:08.129Z,6.10
2018-05-02T05:15:35.642Z,7.10
2018-05-02T05:18:03.875Z,6.27
2018-05-02T05:20:31.351Z,6.33
2018-05-02T05:22:58.829Z,7.87
2018-05-02T05:25:27.045Z,7.03
2018-05-02T05:27:54.525Z,7.73
2018-05-02T05:30:21.994Z,7.40
2018-05-02T05:32:49.487Z,6.93
2018-05-02T05:35:17.789Z,5.90
2018-05-02T05:37:45.200Z,6.43
2018-05-02T05:40:12.661Z,8.30
2018-05-02T05:42:40.892Z,6.97
2018-05-02T05:45:08.366Z,7.33
2018-05-02T05:47:35.837Z,7.57
2018-05-02T05:50:03.305Z,6.93
2018-05-02T05:52:30.760Z,7.50
2018-05-02T05:54:58.249Z,8.13
2018-05-02T05:57:26.478Z,7.30
2018-05-02T05:59:53.946Z,6.60
2018-05-02T06:02:21.417Z,6.07
2018-05-02T06:04:48.885Z,6.10
2018-05-02T06:07:17.126Z,8.20
2018-05-02T06:09:44.588Z,7.40
2018-05-02T06:12:12.059Z,7.87
2018-05-02T06:14:39.533Z,8.20
2018-05-02T06:17:07.815Z,8.47
2018-05-02T06:19:36.053Z,8.13
2018-05-02T06:22:03.621Z,9.20
2018-05-02T06:24:31.099Z,8.33
2018-05-02T06:26:58.558Z,9.13
2018-05-02T06:29:26.042Z,8.83
2018-05-02T06:31:54.286Z,8.30
2018-05-02T06:34:21.765Z,8.03
2018-05-02T06:36:49.990Z,8.40
2018-05-02T06:39:18.234Z,8.10
2018-05-02T06:41:45.703Z,8.33
2018-05-02T06:44:13.177Z,6.87
2018-05-02T06:46:40.638Z,7.67
2018-05-02T06:49:08.169Z,6.87
2018-05-02T06:51:35.585Z,7.77
2018-05-02T06:54:03.063Z,6.70
2018-05-02T06:56:31.292Z,6.87
2018-05-02T06:58:58.761Z,7.00
2018-05-02T07:01:26.228Z,6.07
2018-05-02T07:03:54.469Z,6.53
2018-05-02T07:06:21.929Z,7.50
2018-05-02T07:08:49.407Z,7.07
2018-05-02T07:11:16.877Z,6.20
2018-05-02T07:13:44.362Z,7.10
2018-05-02T07:16:11.820Z,6.10
2018-05-02T07:18:39.298Z,6.03
2018-05-02T07:21:07.526Z,6.70
2018-05-02T07:23:34.999Z,6.40
2018-05-02T07:26:02.472Z,5.70
2018-05-02T07:28:29.946Z,5.50
2018-05-02T07:30:58.173Z,5.83
2018-05-02T07:33:25.658Z,6.77
2018-05-02T07:35:53.120Z,5.80
2018-05-02T07:38:20.599Z,6.93
2018-05-02T07:40:48.902Z,6.97
2018-05-02T07:43:16.677Z,6.30
2018-05-02T07:45:44.140Z,7.17
2018-05-02T07:48:11.617Z,6.10
2018-05-02T07:50:39.093Z,5.60
2018-05-02T07:53:06.562Z,5.90
2018-05-02T07:55:34.793Z,6.53
2018-05-02T07:58:02.703Z,6.27
2018-05-02T08:00:30.117Z,6.43
2018-05-02T08:02:57.583Z,6.63
2018-05-02T08:05:25.056Z,7.10
2018-05-02T08:07:52.523Z,6.60
2018-05-02T08:10:19.989Z,7.03
2018-05-02T08:12:47.457Z,5.20
2018-05-02T08:15:15.699Z,6.70
2018-05-02T08:17:43.179Z,5.70
2018-05-02T08:20:10.663Z,7.10
2018-05-02T08:22:38.908Z,6.60
2018-05-02T08:25:06.385Z,6.23
2018-05-02T08:27:33.846Z,7.33
2018-05-02T08:30:02.104Z,6.13
2018-05-02T08:32:29.569Z,5.97
2018-05-02T08:34:57.043Z,6.00
2018-05-02T08:37:25.271Z,6.43
2018-05-02T08:39:52.749Z,7.30
2018-05-02T08:42:20.221Z,5.87
2018-05-02T08:44:47.694Z,6.40
2018-05-02T08:47:16.089Z,6.63
2018-05-02T08:49:44.333Z,6.70
2018-05-02T08:52:13.310Z,6.80
2018-05-02T08:54:40.786Z,6.77
2018-05-02T08:57:08.250Z,6.50
2018-05-02T08:59:35.731Z,5.63
2018-05-02T09:02:04.509Z,6.97
2018-05-02T09:04:32.758Z,7.50
2018-05-02T09:07:00.228Z,7.20
2018-05-02T09:09:27.723Z,6.40
2018-05-02T09:11:55.946Z,6.43
2018-05-02T09:14:23.417Z,7.60
2018-05-02T09:16:50.886Z,6.60
2018-05-02T09:19:18.363Z,6.43
2018-05-02T09:21:46.593Z,6.17
2018-05-02T09:24:14.126Z,6.20
2018-05-02T09:26:41.590Z,7.17
2018-05-02T09:29:09.059Z,6.03
2018-05-02T09:31:36.550Z,5.50
2018-05-02T09:34:04.011Z,6.00
2018-05-02T09:36:31.479Z,9.10
2018-05-02T09:39:00.624Z,4.87
2018-05-02T09:41:28.087Z,6.53
2018-05-02T09:43:55.561Z,6.20
2018-05-02T09:46:23.033Z,5.70
2018-05-02T09:48:50.503Z,5.07
2018-05-02T09:51:17.972Z,6.57
2018-05-02T09:53:46.244Z,6.07
2018-05-02T09:56:13.733Z,6.00
2018-05-02T09:58:41.193Z,6.80
2018-05-02T10:01:08.671Z,6.67
2018-05-02T10:03:36.153Z,5.80
2018-05-02T10:06:03.621Z,5.93
2018-05-02T10:08:31.093Z,6.23
2018-05-02T10:10:58.563Z,5.87
2018-05-02T10:13:26.797Z,6.57
2018-05-02T10:15:54.259Z,5.53
2018-05-02T10:18:27.934Z,5.43
2018-05-02T10:20:55.367Z,4.90
2018-05-02T10:23:23.596Z,5.67
2018-05-02T10:25:51.073Z,5.27
2018-05-02T10:28:18.535Z,5.90
2018-05-02T10:30:45.996Z,5.70
2018-05-02T10:33:13.461Z,5.23
2018-05-02T10:35:40.929Z,6.50
2018-05-02T10:38:09.161Z,5.63
2018-05-02T10:40:36.640Z,5.80
2018-05-02T10:43:04.141Z,5.10
2018-05-02T10:45:31.569Z,4.83
2018-05-02T10:47:59.037Z,4.90
2018-05-02T10:50:27.344Z,4.90
2018-05-02T10:52:54.733Z,4.80
2018-05-02T10:55:22.201Z,4.33
2018-05-02T10:57:49.684Z,5.63
2018-05-02T11:00:17.149Z,5.73
2018-05-02T11:02:45.389Z,5.43
2018-05-02T11:05:12.861Z,4.73
2018-05-02T11:07:40.335Z,4.33
2018-05-02T11:10:08.574Z,5.07
2018-05-02T11:12:36.033Z,4.63
2018-05-02T11:15:04.274Z,4.87
2018-05-02T11:17:31.743Z,4.60
2018-05-02T11:19:59.210Z,4.50
2018-05-02T11:22:26.713Z,5.10
2018-05-02T11:24:54.162Z,5.53
2018-05-02T11:27:21.617Z,5.10
2018-05-02T11:29:49.102Z,5.73
2018-05-02T11:32:17.339Z,4.73
2018-05-02T11:34:44.923Z,6.50
2018-05-02T11:37:12.345Z,4.87
2018-05-02T11:39:39.814Z,5.20
2018-05-02T11:42:07.282Z,5.67
2018-05-02T11:44:34.776Z,5.80
2018-05-02T11:47:03.010Z,5.00
2018-05-02T11:49:30.482Z,5.30
2018-05-02T11:51:57.964Z,5.33
2018-05-02T11:54:25.420Z,5.27
2018-05-02T11:56:53.666Z,5.73
2018-05-02T11:59:21.131Z,5.93
2018-05-02T12:01:48.676Z,5.33
2018-05-02T12:04:16.134Z,4.97
2018-05-02T12:06:43.600Z,5.17
2018-05-02T12:09:11.057Z,5.43
2018-05-02T12:11:38.537Z,5.23
2018-05-02T12:14:06.107Z,6.03
2018-05-02T12:16:33.587Z,5.30
2018-05-02T12:19:01.823Z,5.27
2018-05-02T12:21:29.302Z,5.00
2018-05-02T12:23:56.803Z,5.27
2018-05-02T12:26:24.276Z,5.67
2018-05-02T12:28:51.746Z,6.87
2018-05-02T12:31:19.218Z,5.20
2018-05-02T12:33:46.752Z,5.70
2018-05-02T12:36:14.286Z,6.13
2018-05-02T12:38:41.792Z,4.57
2018-05-02T12:41:09.253Z,4.90
2018-05-02T12:43:36.737Z,4.77
2018-05-02T12:46:04.214Z,5.43
2018-05-02T12:48:31.728Z,5.53
2018-05-02T12:50:59.197Z,4.50
2018-05-02T12:53:26.654Z,4.90
2018-05-02T12:55:54.140Z,5.10
2018-05-02T12:58:22.372Z,4.43
2018-05-02T13:00:49.864Z,5.33
2018-05-02T13:03:17.326Z,4.23
2018-05-02T13:05:45.565Z,4.37
2018-05-02T13:08:13.080Z,3.80
2018-05-02T13:10:40.514Z,4.60
2018-05-02T13:13:08.003Z,4.80
2018-05-02T13:15:35.482Z,4.70
2018-05-02T13:18:02.965Z,3.90
2018-05-02T13:20:30.450Z,4.70
2018-05-02T13:22:57.922Z,4.50
2018-05-02T13:25:26.157Z,4.90
2018-05-02T13:27:53.633Z,4.70
2018-05-02T13:30:21.142Z,4.40
2018-05-02T13:32:48.601Z,4.60
2018-05-02T13:35:16.095Z,4.97
2018-05-02T13:37:43.598Z,4.27
2018-05-02T13:40:11.841Z,4.87
2018-05-02T13:42:39.304Z,4.37
2018-05-02T13:45:06.769Z,4.13
2018-05-02T13:47:34.283Z,4.70
2018-05-02T13:50:01.747Z,4.50
2018-05-02T13:52:29.215Z,4.00
2018-05-02T13:54:56.673Z,4.00
2018-05-02T13:57:24.142Z,4.00
2018-05-02T13:59:51.601Z,3.90
2018-05-02T14:02:19.072Z,3.97
2018-05-02T14:04:46.532Z,4.47
2018-05-02T14:07:14.021Z,4.40
2018-05-02T14:09:42.257Z,5.03
2018-05-02T14:12:09.751Z,5.43
2018-05-02T14:14:37.982Z,4.70
2018-05-02T14:17:05.461Z,4.30
2018-05-02T14:19:32.939Z,4.23
2018-05-02T14:22:01.172Z,3.60
2018-05-02T14:24:28.638Z,3.97
2018-05-02T14:26:56.162Z,3.70
2018-05-02T14:29:23.625Z,4.80
2018-05-02T14:31:51.118Z,5.50
2018-05-02T14:34:18.603Z,5.10
2018-05-02T14:36:46.088Z,5.03
2018-05-02T14:39:13.536Z,5.47
2018-05-02T14:41:41.024Z,4.47
2018-05-02T14:44:08.496Z,4.40
2018-05-02T14:46:35.981Z,4.63
2018-05-02T14:49:03.442Z,4.73
2018-05-02T14:51:30.909Z,4.57
2018-05-02T14:53:58.373Z,3.77
2018-05-02T14:56:26.614Z,4.40
2018-05-02T14:58:54.088Z,4.33
2018-05-02T15:01:21.557Z,5.03
2018-05-02T15:03:49.017Z,4.70
2018-05-02T15:06:16.509Z,3.93
2018-05-02T15:08:43.964Z,3.63
2018-05-02T15:11:11.462Z,4.23
2018-05-02T15:13:38.932Z,3.07
2018-05-02T15:16:06.408Z,3.87
2018-05-02T15:18:33.882Z,3.43
2018-05-02T15:21:02.122Z,3.67
2018-05-02T15:23:29.590Z,4.20
2018-05-02T15:25:57.066Z,3.73
2018-05-02T15:28:24.526Z,4.50
2018-05-02T15:30:52.010Z,4.13
2018-05-02T15:33:19.468Z,4.50
2018-05-02T15:35:46.950Z,4.30
2018-05-02T15:38:14.412Z,4.07
2018-05-02T15:40:41.884Z,4.30
2018-05-02T15:43:09.353Z,4.03
2018-05-02T15:45:36.824Z,4.30
2018-05-02T15:48:04.294Z,4.27
2018-05-02T15:50:31.758Z,4.60
2018-05-02T15:53:00.009Z,3.90
2018-05-02T15:55:28.393Z,4.27
2018-05-02T15:57:55.893Z,3.93
2018-05-02T16:00:24.113Z,3.83
2018-05-02T16:02:52.358Z,5.07
2018-05-02T16:05:19.834Z,4.10
2018-05-02T16:07:47.305Z,5.03
2018-05-02T16:10:14.780Z,4.70
2018-05-02T16:12:42.248Z,4.27
2018-05-02T16:15:09.705Z,4.60
2018-05-02T16:17:37.187Z,4.80
2018-05-02T16:20:05.413Z,4.90
2018-05-02T16:22:32.955Z,4.87
2018-05-02T16:25:00.431Z,4.50
2018-05-02T16:27:28.580Z,3.80
2018-05-02T16:29:56.202Z,3.80
2018-05-02T16:32:23.550Z,5.07
2018-05-02T16:34:51.471Z,4.70
2018-05-02T16:37:19.002Z,4.30
2018-05-02T16:39:47.245Z,3.60
2018-05-02T16:42:14.709Z,3.60
2018-05-02T16:44:42.181Z,3.50
2018-05-02T16:47:09.658Z,3.60
2018-05-02T16:49:37.894Z,3.60
2018-05-02T16:52:05.398Z,4.23
2018-05-02T16:54:32.833Z,3.87
2018-05-02T16:57:00.307Z,4.40
2018-05-02T16:59:28.540Z,5.23
2018-05-02T17:01:56.021Z,5.37
2018-05-02T17:04:23.521Z,4.40
2018-05-02T17:06:52.022Z,4.27
2018-05-02T17:09:19.481Z,4.47
2018-05-02T17:11:46.953Z,3.67
2018-05-02T17:14:14.437Z,4.00
2018-05-02T17:16:41.946Z,3.63
2018-05-02T17:19:09.417Z,4.37
2018-05-02T17:21:36.889Z,3.80
2018-05-02T17:24:04.362Z,4.17
2018-05-02T17:26:31.818Z,3.90
2018-05-02T17:28:59.310Z,3.80
2018-05-02T17:31:27.551Z,3.53
2018-05-02T17:33:55.029Z,3.63
2018-05-02T17:36:22.495Z,3.77
2018-05-02T17:38:50.733Z,4.20
2018-05-02T17:41:18.203Z,4.17
2018-05-02T17:43:45.679Z,4.30
2018-05-02T17:46:13.138Z,4.60
2018-05-02T17:48:40.608Z,3.77
2018-05-02T17:51:08.853Z,3.87
2018-05-02T17:53:36.320Z,4.20
2018-05-02T17:56:04.609Z,3.93
2018-05-02T17:58:32.113Z,4.33
2018-05-02T18:00:59.590Z,4.83
2018-05-02T18:03:27.068Z,4.40
2018-05-02T18:05:54.535Z,4.60
2018-05-02T18:08:22.000Z,4.43
2018-05-02T18:10:49.464Z,4.97
2018-05-02T18:13:16.943Z,5.10
2018-05-02T18:15:46.212Z,4.10
2018-05-02T18:18:13.695Z,4.73
2018-05-02T18:20:41.931Z,4.60
2018-05-02T18:23:09.463Z,4.87
2018-05-02T18:25:36.873Z,5.57
2018-05-02T18:28:04.434Z,5.40
2018-05-02T18:30:31.828Z,5.00
2018-05-02T18:32:59.293Z,5.13
2018-05-02T18:35:26.769Z,5.93
2018-05-02T18:37:54.238Z,6.27
2018-05-02T18:40:21.713Z,12.07
2018-05-02T18:42:49.189Z,11.00
2018-05-02T18:45:17.429Z,7.20
2018-05-02T18:47:44.893Z,6.90
2018-05-02T18:50:12.365Z,5.70
2018-05-02T18:52:39.863Z,5.20
2018-05-02T18:55:07.411Z,5.33
2018-05-02T18:57:35.649Z,5.30
2018-05-02T19:00:03.151Z,5.17
2018-05-02T19:02:31.380Z,5.27
2018-05-02T19:04:58.864Z,4.40
2018-05-02T19:07:26.329Z,4.90
2018-05-02T19:09:53.797Z,4.87
2018-05-02T19:12:22.029Z,4.53
2018-05-02T19:14:49.526Z,4.50
2018-05-02T19:17:17.757Z,5.97
2018-05-02T19:22:55.052Z,7.50
2018-05-02T19:25:28.138Z,7.73
2018-05-02T19:27:55.601Z,5.70
2018-05-02T19:30:23.114Z,5.40
2018-05-02T19:32:56.166Z,5.37
2018-05-02T19:35:23.633Z,5.13
2018-05-02T19:37:51.095Z,6.37
2018-05-02T19:40:24.262Z,7.40
2018-05-02T19:42:57.461Z,5.10
2018-05-02T19:45:24.942Z,4.40
2018-05-02T19:47:52.413Z,5.20
2018-05-02T19:50:19.894Z,6.00
2018-05-02T19:52:48.126Z,5.13
2018-05-02T19:55:15.598Z,6.50
2018-05-02T19:57:43.060Z,6.10
2018-05-02T20:00:16.143Z,6.57
2018-05-02T20:02:49.324Z,6.30
2018-05-02T20:05:16.799Z,5.90
2018-05-02T20:07:44.265Z,6.00
2018-05-02T20:10:17.448Z,5.63
2018-05-02T20:12:50.720Z,5.73
2018-05-02T20:15:18.194Z,5.83
2018-05-02T20:17:45.656Z,6.10
2018-05-02T20:20:13.410Z,5.53
2018-05-02T20:22:40.888Z,5.60
2018-05-02T20:25:08.365Z,5.80
2018-05-02T20:27:36.611Z,6.20
2018-05-02T20:30:04.095Z,5.70
2018-05-02T20:32:31.557Z,5.60
2018-05-02T20:34:59.034Z,6.20
2018-05-02T20:37:26.489Z,4.73
2018-05-02T20:39:54.738Z,5.00
2018-05-02T20:42:22.197Z,4.53
2018-05-02T20:44:49.919Z,5.13
2018-05-02T20:47:17.383Z,5.40
2018-05-02T20:49:44.858Z,6.27
2018-05-02T20:52:12.332Z,5.37
2018-05-02T20:54:39.803Z,5.77
2018-05-02T20:57:07.264Z,6.33
2018-05-02T20:59:34.738Z,5.93
2018-05-02T21:02:02.963Z,5.60
2018-05-02T21:04:30.429Z,7.00
2018-05-02T21:06:57.904Z,6.10
2018-05-02T21:09:25.369Z,5.67
2018-05-02T21:11:52.847Z,5.87
2018-05-02T21:14:21.162Z,5.40
2018-05-02T21:16:48.558Z,5.90
2018-05-02T21:19:16.030Z,5.90
2018-05-02T21:21:44.275Z,6.17
2018-05-02T21:24:11.736Z,5.00
2018-05-02T21:26:39.215Z,5.40
2018-05-02T21:29:06.696Z,5.77
2018-05-02T21:31:34.990Z,5.10
2018-05-02T21:34:02.471Z,5.63
2018-05-02T21:36:29.948Z,6.23
2018-05-02T21:38:57.450Z,6.67
2018-05-02T21:41:25.677Z,6.40
2018-05-02T21:43:53.148Z,5.30
2018-05-02T21:46:20.608Z,6.03
2018-05-02T21:48:48.082Z,5.00
2018-05-02T21:51:16.324Z,5.37
2018-05-02T21:53:44.685Z,5.50
2018-05-02T21:56:12.167Z,5.43
2018-05-02T21:58:39.624Z,5.87
2018-05-02T22:01:07.099Z,6.40
2018-05-02T22:03:34.562Z,6.10
2018-05-02T22:06:02.031Z,6.57
2018-05-02T22:08:29.484Z,7.73
2018-05-02T22:10:56.958Z,7.07
2018-05-02T22:13:25.191Z,7.27
2018-05-02T22:15:52.670Z,7.17
2018-05-02T22:18:20.134Z,8.23
2018-05-02T22:20:47.612Z,7.90
2018-05-02T22:23:15.857Z,8.13
2018-05-02T22:25:43.345Z,7.10
2018-05-02T22:28:11.573Z,8.37
2018-05-02T22:30:39.049Z,7.43
2018-05-02T22:33:06.518Z,6.80
2018-05-02T22:35:33.981Z,7.07
2018-05-02T22:38:01.465Z,7.10
2018-05-02T22:40:29.714Z,7.60
2018-05-02T22:42:57.972Z,8.10
2018-05-02T22:45:25.446Z,7.60
2018-05-02T22:47:52.920Z,7.33
2018-05-02T22:50:21.180Z,7.00
2018-05-02T22:52:48.642Z,7.17
2018-05-02T22:55:16.121Z,6.73
2018-05-02T22:57:44.341Z,7.73
2018-05-02T23:00:11.822Z,7.67
2018-05-02T23:02:39.348Z,7.73
2018-05-02T23:05:06.769Z,7.90
2018-05-02T23:07:35.015Z,8.10
2018-05-02T23:10:02.486Z,8.87
2018-05-02T23:12:29.957Z,8.07
2018-05-02T23:14:58.192Z,7.70
2018-05-02T23:17:25.674Z,8.10
2018-05-02T23:19:53.142Z,7.90
2018-05-02T23:22:20.622Z,7.67
2018-05-02T23:24:48.872Z,8.30
2018-05-02T23:27:16.596Z,8.23
2018-05-02T23:29:44.058Z,8.60
2018-05-02T23:32:11.538Z,8.60
2018-05-02T23:34:39.006Z,7.60
2018-05-02T23:37:06.481Z,8.90
2018-05-02T23:39:34.722Z,8.70
2018-05-02T23:42:02.198Z,8.33
2018-05-02T23:44:29.890Z,7.87
2018-05-02T23:46:58.138Z,8.30
2018-05-02T23:49:25.610Z,8.23
2018-05-02T23:51:53.858Z,8.37
2018-05-02T23:54:21.333Z,8.27
2018-05-02T23:56:48.824Z,8.93
2018-05-02T23:59:17.054Z,8.83
